Condiciones actuales en los principales Aeropuertos de España-Datos Metar

 

LEAL - Alicante
Actualización: 21/10/2018 07:30
Despejado
Despejado
 Viento del ENE
Viento: ENE 33 km/h
Temperatura: 22°C
Rocío: 18°C
Humedad: 78%
Barómetro: 1019 hPa
Resumen: Despejado
Visibilidad: greater than 10 km
2018/10/21 05:30 LEAL 210530Z 07018KT CAVOK 22/18 Q1019 NOSIG
LEAB - Albacete
Actualización: 21/10/2018 07:00
Mostly Cloudy
Mostly Cloudy
 Viento del ONO
Viento: ONO 6 km/h
Temperatura: 15°C
Rocío: 14°C
Humedad: 94%
Barómetro: 1022 hPa
Nubosidad: Mostly Cloudy
Visibilidad: 10 km
Cloud details: Mostly Cloudy 610 m
2018/10/21 05:00 LEAB 210500Z 29003KT 260V320 9999 BKN020 15/14 Q1022 NOSIG
LEAM - Almería
Actualización: 21/10/2018 07:30
Few Clouds
Few Clouds
 Viento del NNE
Viento: NNE 20 km/h
Temperatura: 23°C
Rocío: 16°C
Humedad: 65%
Barómetro: 1016 hPa
Nubosidad: Few Clouds
Visibilidad: 10 km
Cloud details: Few Clouds 457 m
2018/10/21 05:30 LEAM 210530Z 03011KT 360V070 9999 FEW015 23/16 Q1016
 
LEAS - Asturias/Aviles
Actualización: 21/10/2018 07:30

 Viento del calm
Viento: Calma
Visibilidad: 1 km
2018/10/21 05:30 LEAS 210530Z 00000KT 1200 0800 R29/1100U R11/P2000 BR BCFG SCT007 13/13 Q1023 TEMPO 2000
LEBZ - Badajoz/Talavera la Real
Actualización: 21/10/2018 07:00
Few Clouds
Few Clouds
 Viento del ENE
Viento: ENE 4 km/h
Temperatura: 15°C
Rocío: 14°C
Humedad: 94%
Barómetro: 1017 hPa
Nubosidad: Few Clouds
Visibilidad: 8 km
Cloud details: Few Clouds 914 m
2018/10/21 05:00 LEBZ 210500Z 07002KT 8000 FEW030 15/14 Q1017
LEBL - Barcelona
Actualización: 21/10/2018 07:30
Few Clouds
Few Clouds
 Viento del NNO
Viento: NNO 17 km/h, Racha: 35 km/h
Temperatura: 16°C
Rocío: 14°C
Humedad: 88%
Barómetro: 1022 hPa
Nubosidad: Few Clouds
Visibilidad: 10 km
Cloud details: Few Clouds 1219 m
2018/10/21 05:30 LEBL 210530Z 33009G19KT 9999 FEW040 16/14 Q1022 NOSIG
 
LEBB - Bilbao
Actualización: 21/10/2018 07:30
Niebla, Cubierto
Niebla, Cubierto
 Viento del SE
Viento: SE 7 km/h
Temperatura: 13°C
Rocío: 13°C
Humedad: 100%
Barómetro: 1023 hPa
Resumen: Niebla
Nubosidad: Cubierto
Visibilidad: 1 km
Cloud details: Cubierto 30 m
2018/10/21 05:30 LEBB 210530Z 13004KT 100V160 0500 R30/P2000 R12/P2000 FG VV001 13/13 Q1023 TEMPO 1000
LEBG - Burgos/Villafría
Actualización: 21/10/2018 07:30
Niebla, Cubierto
Niebla, Cubierto
 Viento del calm
Viento: Calma
Temperatura: 10°C
Rocío: 10°C
Humedad: 100%
Barómetro: 1025 hPa
Resumen: Niebla
Nubosidad: Cubierto
Visibilidad: 0 km
Cloud details: Cubierto 61 m
2018/10/21 05:30 LEBG 210530Z 00000KT 0100 R22/0450N R04/0100N FG VV002 10/10 Q1025
LEBA - Córdoba
Actualización: 21/10/2018 07:30
LLuvia, Parcialmente nublado
LLuvia, Parcialmente nublado
 Viento del ESE
Viento: ESE 13 km/h
Temperatura: 16°C
Rocío: 15°C
Humedad: 94%
Barómetro: 1017 hPa
Resumen: LLuvia
Nubosidad: Partly Cloudy
Visibilidad: 10 km
2018/10/21 05:30 LEBA 210530Z AUTO 12007KT 080V150 9999 RA NSC 16/15 Q1017
 
LEGE - Gerona
Actualización: 21/10/2018 07:30
Mist, Parcialmente nublado
Mist, Parcialmente nublado
 Viento del calm
Viento: Calma
Temperatura: 12°C
Rocío: 12°C
Humedad: 100%
Barómetro: 1022 hPa
Resumen: Mist
Nubosidad: Partly Cloudy
Visibilidad: 3 km
2018/10/21 05:30 LEGE 210530Z 00000KT 3000 BR NSC 12/12 Q1022
LEGR - Granada
Actualización: 21/10/2018 07:30
Few Clouds
Few Clouds
 Viento del varies
Viento: varies 4 km/h
Temperatura: 14°C
Rocío: 13°C
Humedad: 94%
Barómetro: 1018 hPa
Nubosidad: Few Clouds
Visibilidad: 10 km
Cloud details: Few Clouds 2438 m
2018/10/21 05:30 LEGR 210530Z VRB02KT 9999 FEW080 14/13 Q1018
GCHI - Hierro
Actualización: 21/10/2018 07:30
Despejado
Despejado
 Viento del O
Viento: O 7 km/h
Temperatura: 20°C
Rocío: 14°C
Humedad: 69%
Barómetro: 1014 hPa
Resumen: Despejado
Visibilidad: greater than 10 km
2018/10/21 05:30 GCHI 210530Z AUTO 27004KT CAVOK 20/14 Q1014
 
LEIB - Ibiza
Actualización: 21/10/2018 07:30
Mostly Cloudy
Mostly Cloudy
 Viento del ENE
Viento: ENE 20 km/h
Temperatura: 22°C
Rocío: 19°C
Humedad: 83%
Barómetro: 1020 hPa
Nubosidad: Mostly Cloudy
Visibilidad: 10 km
Cloud details: Partly Cloudy 396 m
Mostly Cloudy 488 m
2018/10/21 05:30 LEIB 210530Z 07011KT 040V100 9999 SCT013 BKN016 22/19 Q1020 NOSIG
LEJR - Jerez de la Frontera
Actualización: 21/10/2018 07:30
Mostly Cloudy
Mostly Cloudy
 Viento del NE
Viento: NE 4 km/h
Temperatura: 16°C
Rocío: 15°C
Humedad: 94%
Barómetro: 1016 hPa
Nubosidad: Mostly Cloudy
Visibilidad: 10 km
Cloud details: Mostly Cloudy 1676 m
2018/10/21 05:30 LEJR 210530Z 04002KT 9999 BKN055 16/15 Q1016
LECO - A Coruña
Actualización: 21/10/2018 07:30
Despejado
Despejado
 Viento del SSE
Viento: SSE 4 km/h
Temperatura: 12°C
Rocío: 11°C
Humedad: 94%
Barómetro: 1021 hPa
Resumen: Despejado
Visibilidad: greater than 10 km
2018/10/21 05:30 LECO 210530Z 16002KT CAVOK 12/11 Q1021 NOSIG
 
GCLA - La Palma
Actualización: 21/10/2018 07:30
Despejado
Despejado
 Viento del ONO
Viento: ONO 11 km/h
Temperatura: 19°C
Rocío: 12°C
Humedad: 64%
Barómetro: 1014 hPa
Nubosidad: Despejado
Visibilidad: 10 km
2018/10/21 05:30 GCLA 210530Z AUTO 29006KT 9999 NCD 19/12 Q1014
GCRR - Lanzarote
Actualización: 21/10/2018 07:30
Few Clouds
Few Clouds
 Viento del calm
Viento: Calma
Temperatura: 17°C
Rocío: 15°C
Humedad: 88%
Barómetro: 1015 hPa
Nubosidad: Few Clouds
Visibilidad: 10 km
Cloud details: Few Clouds 610 m
2018/10/21 05:30 GCRR 210530Z 00000KT 9999 FEW020 17/15 Q1015
GCLP - Las Palmas
Actualización: 21/10/2018 07:30
Few Clouds
Few Clouds
 Viento del SO
Viento: SO 7 km/h
Temperatura: 18°C
Rocío: 12°C
Humedad: 68%
Barómetro: 1014 hPa
Nubosidad: Few Clouds
Visibilidad: 10 km
Cloud details: Few Clouds 1067 m
2018/10/21 05:30 GCLP 210530Z 23004KT 9999 FEW035 18/12 Q1014 NOSIG
 
LELN - León
Actualización: 21/10/2018 07:30
Despejado
Despejado
 Viento del NNE
Viento: NNE 7 km/h
Temperatura: 12°C
Rocío: 8°C
Humedad: 77%
Barómetro: 1024 hPa
Nubosidad: Despejado
Visibilidad: 10 km
2018/10/21 05:30 LELN 210530Z AUTO 02004KT 350V050 9999 NCD 12/08 Q1024
LELO - Logroño
Actualización: 21/10/2018 07:30
Partly Cloudy
Partly Cloudy
 Viento del SSE
Viento: SSE 2 km/h
Temperatura: 10°C
Rocío: 9°C
Humedad: 94%
Barómetro: 1024 hPa
Nubosidad: Partly Cloudy
Visibilidad: 6 km
2018/10/21 05:30 LELO 210530Z 15001KT 6000 NSC 10/09 Q1024
LECV - Madrid/Colmenar
Actualización: 20/10/2018 20:00
NO Actualizado
Thunderstorm rain, Muy nuboso
Thunderstorm rain, Muy nuboso
 Viento del E
Viento: E 17 km/h
Temperatura: 14°C
Rocío: 14°C
Humedad: 100%
Barómetro: 1022 hPa
Resumen: Thunderstorm Rain
Nubosidad: Mostly Cloudy
Visibilidad: 2 km
Cloud details: Partly Cloudy 610 m
Mostly Cloudy 1219 m
2018/10/20 18:00 LECV 201800Z 10009KT 1500 TSRA SCT020CB BKN040 14/14 Q1022
 
LEMD - Madrid/Barajas
Actualización: 21/10/2018 07:30
Partly Cloudy
Partly Cloudy
 Viento del varies
Viento: varies 4 km/h
Temperatura: 15°C
Rocío: 13°C
Humedad: 88%
Barómetro: 1022 hPa
Nubosidad: Partly Cloudy
Visibilidad: 10 km
Cloud details: Partly Cloudy 1219 m
2018/10/21 05:30 LEMD 210530Z VRB02KT 9999 SCT040 15/13 Q1022 R88/29//95 NOSIG
LEVS - Madrid/Cuatro Vientos
Actualización: 21/10/2018 07:30
Few Clouds
Few Clouds
 Viento del NE
Viento: NE 9 km/h
Temperatura: 15°C
Rocío: 12°C
Humedad: 82%
Barómetro: 1022 hPa
Nubosidad: Few Clouds
Visibilidad: 10 km
Cloud details: Few Clouds 884 m
2018/10/21 05:30 LEVS 210530Z 04005KT 340V140 9999 FEW029 15/12 Q1022
LEGT - Madrid/Getafe
Actualización: 21/10/2018 07:00
Few Clouds
Few Clouds
 Viento del NE
Viento: NE 19 km/h
Temperatura: 15°C
Rocío: 12°C
Humedad: 82%
Barómetro: 1022 hPa
Nubosidad: Few Clouds
Visibilidad: 10 km
Cloud details: Few Clouds 914 m
2018/10/21 05:00 LEGT 210500Z 05010KT 020V080 9999 FEW030 15/12 Q1022
 
LETO - Madrid/Torrejón
Actualización: 21/10/2018 07:00
Few Clouds
Few Clouds
 Viento del NNE
Viento: NNE 9 km/h
Temperatura: 14°C
Rocío: 13°C
Humedad: 94%
Barómetro: 1022 hPa
Nubosidad: Few Clouds
Visibilidad: 10 km
Cloud details: Few Clouds 1219 m
2018/10/21 05:00 LETO 210500Z 03005KT 9999 FEW040 14/13 Q1022 NOSIG
LEMG - Málaga
Actualización: 21/10/2018 07:30
Mostly Cloudy
Mostly Cloudy
 Viento del O
Viento: O 15 km/h
Temperatura: 19°C
Rocío: 15°C
Humedad: 78%
Barómetro: 1016 hPa
Nubosidad: Mostly Cloudy
Visibilidad: 10 km
Cloud details: Mostly Cloudy 610 m
2018/10/21 05:30 LEMG 210530Z 28008KT 9999 BKN020 19/15 Q1016 NOSIG
GEML - Melilla
Actualización: 21/10/2018 07:30
Mostly Cloudy
Mostly Cloudy
 Viento del O
Viento: O 13 km/h
Temperatura: 20°C
Rocío: 18°C
Humedad: 88%
Barómetro: 1015 hPa
Nubosidad: Mostly Cloudy
Visibilidad: 10 km
Cloud details: Few Clouds 274 m
Partly Cloudy 457 m
Mostly Cloudy 610 m
2018/10/21 05:30 GEML 210530Z 26007KT 220V290 9999 FEW009 SCT015 BKN020 20/18 Q1015
 
LEMH - Mahón
Actualización: 21/10/2018 07:30
Partly Cloudy
Partly Cloudy
 Viento del NNE
Viento: NNE 7 km/h
Temperatura: 18°C
Rocío: 18°C
Humedad: 100%
Barómetro: 1021 hPa
Nubosidad: Partly Cloudy
Visibilidad: 10 km
Cloud details: Few Clouds 305 m
Partly Cloudy 457 m
2018/10/21 05:30 LEMH 210530Z 03004KT 010V070 9999 FEW010 SCT015 18/18 Q1021
LEMO - Morón de La Frontera
Actualización: 21/10/2018 07:00
Partly Cloudy
Partly Cloudy
 Viento del varies
Viento: varies 4 km/h
Temperatura: 14°C
Rocío: 14°C
Humedad: 100%
Barómetro: 1016 hPa
Nubosidad: Partly Cloudy
Visibilidad: 5 km
Cloud details: Partly Cloudy 1859 m
2018/10/21 05:00 LEMO 210500Z VRB02KT 5000 SCT061 14/14 Q1016 NOSIG
LERI - Murcia/Alcantarilla
Actualización: 20/10/2018 20:00
NO Actualizado
Partly Cloudy
Partly Cloudy
 Viento del ENE
Viento: ENE 22 km/h
Temperatura: 21°C
Rocío: 18°C
Humedad: 83%
Barómetro: 1018 hPa
Nubosidad: Partly Cloudy
Visibilidad: 10 km
Cloud details: Partly Cloudy 610 m
Partly Cloudy 1219 m
2018/10/20 18:00 LERI 201800Z 07012KT 040V110 9999 SCT020 SCT040 21/18 Q1018 NOSIG
 
LELC - Murcia/San Javier
Actualización: 21/10/2018 07:30
Mostly Cloudy
Mostly Cloudy
 Viento del NE
Viento: NE 28 km/h
Temperatura: 22°C
Rocío: 19°C
Humedad: 83%
Barómetro: 1018 hPa
Nubosidad: Mostly Cloudy
Visibilidad: 10 km
Cloud details: Mostly Cloudy 518 m
Mostly Cloudy 792 m
2018/10/21 05:30 LELC 210530Z AUTO 05015KT 020V080 9999 BKN017/// BKN026/// 22/19 Q1018
LEPA - Palma de Mallorca
Actualización: 21/10/2018 07:30
Few Clouds
Few Clouds
 Viento del NE
Viento: NE 6 km/h
Temperatura: 16°C
Rocío: 16°C
Humedad: 100%
Barómetro: 1021 hPa
Nubosidad: Few Clouds
Visibilidad: 8 km
Cloud details: Few Clouds 732 m
2018/10/21 05:30 LEPA 210530Z 05003KT 8000 FEW024 16/16 Q1021 NOSIG
LEPP - Pamplona
Actualización: 21/10/2018 07:30
Mist, Cubierto
Mist, Cubierto
 Viento del varies
Viento: varies 4 km/h
Temperatura: 10°C
Rocío: 9°C
Humedad: 94%
Barómetro: 1025 hPa
Resumen: Mist
Nubosidad: Cubierto
Visibilidad: 4 km
Cloud details: Mostly Cloudy 91 m
Cubierto 244 m
2018/10/21 05:30 LEPP 210530Z VRB02KT 4000 BR BKN003 OVC008 10/09 Q1025
 
LERS - Reus
Actualización: 21/10/2018 07:30
Few Clouds
Few Clouds
 Viento del NNE
Viento: NNE 11 km/h
Temperatura: 15°C
Rocío: 12°C
Humedad: 82%
Barómetro: 1022 hPa
Nubosidad: Few Clouds
Visibilidad: 10 km
Cloud details: Few Clouds 1524 m
2018/10/21 05:30 LERS 210530Z 02006KT 9999 FEW050 15/12 Q1022
LERT - Rota
Actualización: 21/10/2018 07:00
Partly Cloudy
Partly Cloudy
 Viento del ENE
Viento: ENE 7 km/h
Temperatura: 15°C
Rocío: 15°C
Humedad: 100%
Barómetro: 1016 hPa
Nubosidad: Partly Cloudy
Visibilidad: 10 km
Cloud details: Partly Cloudy 1585 m
2018/10/21 05:00 LERT 210500Z 06004KT 9999 SCT052 15/15 Q1016 NOSIG
LELL - Sabadell
Actualización: 21/10/2018 07:30
Despejado
Despejado
 Viento del ONO
Viento: ONO 4 km/h
Temperatura: 13°C
Rocío: 13°C
Humedad: 100%
Barómetro: 1023 hPa
Nubosidad: Despejado
Visibilidad: 7 km
2018/10/21 05:30 LELL 210530Z AUTO 30002KT 7000 NCD 13/13 Q1023
 
LESA - Salamanca
Actualización: 21/10/2018 07:30
Lluvia débil, Poco nuboso
Lluvia débil, Poco nuboso
 Viento del E
Viento: E 7 km/h
Temperatura: 13°C
Rocío: 11°C
Humedad: 88%
Barómetro: 1022 hPa
Resumen: Light Rain
Nubosidad: Few Clouds
Visibilidad: 10 km
Cloud details: Few Clouds 1402 m
2018/10/21 05:30 LESA 210530Z AUTO 08004KT 030V120 9999 -RA FEW046 13/11 Q1022
LESO - San Sebastián
Actualización: 21/10/2018 07:30
Mist, Cubierto
Mist, Cubierto
 Viento del SSE
Viento: SSE 6 km/h
Temperatura: 15°C
Rocío: 15°C
Humedad: 100%
Barómetro: 1024 hPa
Resumen: Mist
Nubosidad: Cubierto
Visibilidad: 2 km
Cloud details: Cubierto 91 m
2018/10/21 05:30 LESO 210530Z 16003KT 130V200 1500 BR VV003 15/15 Q1024
LEXJ - Santander
Actualización: 21/10/2018 07:30
Mist, Poco nuboso
Mist, Poco nuboso
 Viento del varies
Viento: varies 2 km/h
Temperatura: 13°C
Rocío: 13°C
Humedad: 100%
Barómetro: 1023 hPa
Resumen: Mist
Nubosidad: Few Clouds
Visibilidad: 3 km
Cloud details: Few Clouds 61 m
2018/10/21 05:30 LEXJ 210530Z VRB01KT 2500 BR FEW002 13/13 Q1023
 
LEPA - Palma de Mallorca
Actualización: 21/10/2018 07:30
Few Clouds
Few Clouds
 Viento del NE
Viento: NE 6 km/h
Temperatura: 16°C
Rocío: 16°C
Humedad: 100%
Barómetro: 1021 hPa
Nubosidad: Few Clouds
Visibilidad: 8 km
Cloud details: Few Clouds 732 m
2018/10/21 05:30 LEPA 210530Z 05003KT 8000 FEW024 16/16 Q1021 NOSIG
LEPP - Pamplona
Actualización: 21/10/2018 07:30
Mist, Cubierto
Mist, Cubierto
 Viento del varies
Viento: varies 4 km/h
Temperatura: 10°C
Rocío: 9°C
Humedad: 94%
Barómetro: 1025 hPa
Resumen: Mist
Nubosidad: Cubierto
Visibilidad: 4 km
Cloud details: Mostly Cloudy 91 m
Cubierto 244 m
2018/10/21 05:30 LEPP 210530Z VRB02KT 4000 BR BKN003 OVC008 10/09 Q1025
LEST - Santiago de Compostela
Actualización: 21/10/2018 07:30
Despejado
Despejado
 Viento del ESE
Viento: ESE 6 km/h
Temperatura: 15°C
Rocío: 12°C
Humedad: 82%
Barómetro: 1021 hPa
Resumen: Despejado
Visibilidad: greater than 10 km
2018/10/21 05:30 LEST 210530Z 11003KT 040V170 CAVOK 15/12 Q1021 NOSIG
 
LEZL - Sevilla
Actualización: 21/10/2018 07:38
Chubascos, Parcialmente nublado
Chubascos, Parcialmente nublado
 Viento del ENE
Viento: ENE 7 km/h
Temperatura: 17°C
Rocío: 16°C
Humedad: 94%
Barómetro: 1016 hPa
Resumen: Rain Showers
Nubosidad: Partly Cloudy
Visibilidad: 6 km
Cloud details: Partly Cloudy 701 m
Partly Cloudy 1219 m
2018/10/21 05:38 LEZL 210538Z 07004KT 6000 SHRA SCT023 SCT040TCU 17/16 Q1016 NOSIG
GCXO - Tenerife
Actualización: 21/10/2018 07:30
Despejado
Despejado
 Viento del ONO
Viento: ONO 17 km/h
Temperatura: 15°C
Rocío: 13°C
Humedad: 88%
Barómetro: 1016 hPa
Resumen: Despejado
Visibilidad: greater than 10 km
2018/10/21 05:30 GCXO 210530Z 30009KT CAVOK 15/13 Q1016 NOSIG
GCTS - Tenerife-Sur
Actualización: 21/10/2018 07:30
Despejado
Despejado
 Viento del NNE
Viento: NNE 7 km/h
Temperatura: 18°C
Rocío: 13°C
Humedad: 73%
Barómetro: 1014 hPa
Resumen: Despejado
Visibilidad: greater than 10 km
2018/10/21 05:30 GCTS 210530Z 02004KT CAVOK 18/13 Q1014 NOSIG
 
LEVC - Valencia
Actualización: 21/10/2018 07:30
Mostly Cloudy
Mostly Cloudy
 Viento del ONO
Viento: ONO 6 km/h
Temperatura: 17°C
Rocío: 16°C
Humedad: 94%
Barómetro: 1021 hPa
Nubosidad: Mostly Cloudy
Visibilidad: 10 km
Cloud details: Mostly Cloudy 1372 m
2018/10/21 05:30 LEVC 210530Z 29003KT 260V320 9999 BKN045 17/16 Q1021 NOSIG
LEVD - Valladolid
Actualización: 21/10/2018 07:30
Despejado
Despejado
 Viento del E
Viento: E 15 km/h
Temperatura: 11°C
Rocío: 10°C
Humedad: 94%
Barómetro: 1023 hPa
Resumen: Despejado
Visibilidad: greater than 10 km
2018/10/21 05:30 LEVD 210530Z 08008KT 040V100 CAVOK 11/10 Q1023
LEVX - Vigo
Actualización: 21/10/2018 07:30
Despejado
Despejado
 Viento del varies
Viento: varies 7 km/h
Temperatura: 19°C
Rocío: 11°C
Humedad: 60%
Barómetro: 1019 hPa
Resumen: Despejado
Visibilidad: greater than 10 km
2018/10/21 05:30 LEVX 210530Z VRB04KT CAVOK 19/11 Q1019 NOSIG
 
LEVT - Vitoria
Actualización: 21/10/2018 07:30
Mist, Cubierto
Mist, Cubierto
 Viento del E
Viento: E 2 km/h
Temperatura: 13°C
Rocío: 12°C
Humedad: 94%
Barómetro: 1024 hPa
Resumen: Mist
Nubosidad: Cubierto
Visibilidad: 4 km
Cloud details: Cubierto 122 m
2018/10/21 05:30 LEVT 210530Z 08001KT 4000 BR OVC004 13/12 Q1024
LEZG - Zaragoza
Actualización: 21/10/2018 07:30
Partly Cloudy
Partly Cloudy
 Viento del O
Viento: O 6 km/h
Temperatura: 13°C
Rocío: 13°C
Humedad: 100%
Barómetro: 1024 hPa
Nubosidad: Partly Cloudy
Visibilidad: 8 km
Cloud details: Partly Cloudy 1067 m
2018/10/21 05:30 LEZG 210530Z 26003KT 8000 SCT035 13/13 Q1024

La estación de MeteoMurcia.com, publica sus datos en los siguientes proyectos:

Meteoclimatic www.awekas.at

W3Counter
Web Analytics